createdAt,value
2019-03-10T00:00:16.023Z,8.01
2019-03-10T00:01:16.001Z,8.01
2019-03-10T00:02:15.979Z,8.00
2019-03-10T00:03:15.951Z,7.95
2019-03-10T00:04:15.934Z,8.00
2019-03-10T00:05:15.905Z,8.01
2019-03-10T00:06:15.885Z,8.01
2019-03-10T00:07:15.860Z,7.98
2019-03-10T00:08:15.833Z,7.97
2019-03-10T00:09:15.812Z,7.90
2019-03-10T00:10:15.790Z,7.92
2019-03-10T00:11:15.776Z,7.87
2019-03-10T00:12:15.740Z,7.97
2019-03-10T00:13:15.724Z,8.01
2019-03-10T00:14:15.694Z,7.92
2019-03-10T00:15:15.685Z,7.97
2019-03-10T00:16:15.651Z,7.89
2019-03-10T00:17:15.625Z,7.92
2019-03-10T00:18:15.613Z,7.92
2019-03-10T00:19:15.581Z,7.90
2019-03-10T00:20:15.561Z,7.90
2019-03-10T00:21:15.537Z,7.92
2019-03-10T00:22:15.507Z,7.90
2019-03-10T00:23:15.497Z,7.98
2019-03-10T00:24:15.466Z,7.89
2019-03-10T00:25:15.438Z,7.89
2019-03-10T00:26:15.415Z,7.90
2019-03-10T00:27:15.392Z,7.82
2019-03-10T00:28:15.376Z,7.75
2019-03-10T00:29:15.358Z,7.82
2019-03-10T00:30:15.336Z,7.75
2019-03-10T00:31:15.301Z,7.75
2019-03-10T00:32:15.284Z,7.83
2019-03-10T00:33:15.262Z,7.79
2019-03-10T00:34:16.731Z,7.74
2019-03-10T00:35:15.208Z,7.72
2019-03-10T00:36:15.181Z,7.77
2019-03-10T00:37:15.159Z,7.69
2019-03-10T00:38:15.134Z,7.64
2019-03-10T00:39:15.123Z,7.68
2019-03-10T00:40:15.097Z,7.67
2019-03-10T00:41:15.075Z,7.67
2019-03-10T00:42:15.043Z,7.68
2019-03-10T00:43:15.018Z,7.69
2019-03-10T00:44:14.995Z,7.64
2019-03-10T00:45:14.973Z,7.61
2019-03-10T00:46:14.950Z,7.69
2019-03-10T00:47:14.925Z,7.67
2019-03-10T00:48:14.901Z,7.61
2019-03-10T00:49:14.883Z,7.67
2019-03-10T00:50:14.857Z,7.63
2019-03-10T00:51:14.830Z,7.61
2019-03-10T00:52:14.811Z,7.61
2019-03-10T00:53:14.786Z,7.68
2019-03-10T00:54:14.768Z,7.63
2019-03-10T00:55:14.750Z,7.69
2019-03-10T00:56:14.721Z,7.71
2019-03-10T00:57:14.691Z,7.72
2019-03-10T00:58:14.670Z,7.75
2019-03-10T00:59:14.645Z,7.71
2019-03-10T01:00:14.622Z,7.71
2019-03-10T01:01:14.607Z,7.69
2019-03-10T01:02:14.575Z,7.68
2019-03-10T01:03:14.564Z,7.63
2019-03-10T01:04:14.533Z,7.67
2019-03-10T01:05:14.507Z,7.80
2019-03-10T01:06:14.487Z,7.69
2019-03-10T01:07:14.458Z,7.69
2019-03-10T01:08:14.435Z,7.72
2019-03-10T01:09:14.415Z,7.79
2019-03-10T01:10:14.390Z,7.80
2019-03-10T01:11:14.364Z,7.64
2019-03-10T01:12:14.350Z,7.79
2019-03-10T01:13:14.318Z,7.68
2019-03-10T01:14:14.633Z,7.83
2019-03-10T01:15:14.275Z,7.67
2019-03-10T01:16:14.301Z,7.68
2019-03-10T01:17:14.234Z,7.71
2019-03-10T01:18:14.199Z,7.72
2019-03-10T01:19:14.179Z,7.61
2019-03-10T01:20:14.169Z,7.68
2019-03-10T01:21:14.139Z,7.64
2019-03-10T01:22:14.110Z,7.61
2019-03-10T01:23:14.087Z,7.74
2019-03-10T01:24:14.065Z,7.71
2019-03-10T01:25:14.041Z,7.57
2019-03-10T01:26:14.014Z,7.61
2019-03-10T01:27:13.988Z,7.64
2019-03-10T01:28:13.966Z,7.64
2019-03-10T01:29:13.945Z,7.67
2019-03-10T01:30:13.918Z,7.71
2019-03-10T01:31:13.903Z,7.69
2019-03-10T01:32:13.893Z,7.64
2019-03-10T01:33:13.853Z,7.63
2019-03-10T01:34:13.825Z,7.67
2019-03-10T01:35:13.804Z,7.58
2019-03-10T01:36:13.780Z,7.61
2019-03-10T01:37:13.760Z,7.67
2019-03-10T01:38:13.733Z,7.68
2019-03-10T01:39:13.713Z,7.68
2019-03-10T01:40:13.695Z,7.68
2019-03-10T01:41:13.663Z,7.68
2019-03-10T01:42:13.641Z,7.68
2019-03-10T01:43:13.619Z,7.69
2019-03-10T01:44:13.592Z,7.61
2019-03-10T01:45:13.573Z,7.71
2019-03-10T01:46:13.550Z,7.69
2019-03-10T01:47:13.525Z,7.63
2019-03-10T01:48:13.498Z,7.68
2019-03-10T01:49:13.474Z,7.71
2019-03-10T01:50:13.451Z,7.67
2019-03-10T01:51:13.435Z,7.67
2019-03-10T01:52:13.404Z,7.67
2019-03-10T01:53:13.386Z,7.68
2019-03-10T01:54:13.422Z,7.68
2019-03-10T01:55:13.330Z,7.71
2019-03-10T01:56:13.308Z,7.74
2019-03-10T01:57:13.290Z,7.77
2019-03-10T01:58:13.262Z,7.82
2019-03-10T01:59:13.244Z,7.80
2019-03-10T02:00:13.222Z,7.75
2019-03-10T02:01:13.192Z,7.69
2019-03-10T02:02:13.169Z,7.72
2019-03-10T02:03:13.144Z,7.86
2019-03-10T02:04:13.119Z,7.74
2019-03-10T02:05:13.097Z,7.64
2019-03-10T02:06:13.080Z,7.79
2019-03-10T02:07:13.053Z,7.63
2019-03-10T02:08:13.027Z,7.69
2019-03-10T02:09:13.004Z,7.71
2019-03-10T02:10:12.996Z,7.67
2019-03-10T02:11:12.955Z,7.68
2019-03-10T02:12:12.933Z,7.83
2019-03-10T02:13:12.916Z,7.72
2019-03-10T02:14:12.885Z,7.71
2019-03-10T02:15:12.860Z,7.79
2019-03-10T02:16:12.842Z,7.74
2019-03-10T02:17:12.819Z,7.80
2019-03-10T02:18:12.792Z,7.79
2019-03-10T02:19:12.769Z,7.72
2019-03-10T02:20:12.745Z,7.75
2019-03-10T02:21:12.727Z,7.75
2019-03-10T02:22:12.698Z,7.77
2019-03-10T02:23:12.684Z,7.75
2019-03-10T02:24:23.157Z,7.74
2019-03-10T02:25:12.629Z,7.72
2019-03-10T02:26:12.610Z,7.82
2019-03-10T02:27:12.581Z,7.79
2019-03-10T02:28:12.557Z,7.75
2019-03-10T02:29:12.539Z,7.74
2019-03-10T02:30:12.511Z,7.72
2019-03-10T02:31:12.499Z,7.79
2019-03-10T02:32:12.467Z,7.69
2019-03-10T02:33:12.443Z,7.68
2019-03-10T02:34:12.416Z,7.67
2019-03-10T02:35:12.393Z,7.67
2019-03-10T02:36:12.371Z,7.69
2019-03-10T02:37:12.353Z,7.74
2019-03-10T02:38:12.330Z,7.69
2019-03-10T02:39:12.301Z,7.71
2019-03-10T02:40:12.284Z,7.67
2019-03-10T02:41:12.253Z,7.77
2019-03-10T02:42:12.235Z,7.69
2019-03-10T02:43:12.206Z,7.72
2019-03-10T02:44:12.200Z,7.71
2019-03-10T02:45:12.178Z,7.75
2019-03-10T02:46:12.136Z,7.75
2019-03-10T02:47:12.112Z,7.85
2019-03-10T02:48:12.089Z,7.74
2019-03-10T02:49:12.074Z,7.74
2019-03-10T02:50:12.052Z,7.86
2019-03-10T02:51:12.022Z,7.80
2019-03-10T02:52:12.003Z,7.77
2019-03-10T02:53:11.974Z,7.72
2019-03-10T02:54:11.962Z,7.72
2019-03-10T02:55:11.927Z,7.80
2019-03-10T02:56:11.911Z,7.85
2019-03-10T02:57:11.885Z,7.80
2019-03-10T02:58:11.858Z,7.69
2019-03-10T02:59:11.833Z,7.79
2019-03-10T03:00:11.812Z,7.69
2019-03-10T03:01:11.786Z,7.80
2019-03-10T03:02:11.764Z,7.80
2019-03-10T03:03:11.739Z,7.72
2019-03-10T03:04:11.820Z,7.85
2019-03-10T03:05:11.695Z,7.79
2019-03-10T03:06:11.669Z,7.82
2019-03-10T03:07:11.896Z,7.77
2019-03-10T03:08:11.685Z,7.77
2019-03-10T03:09:11.605Z,7.75
2019-03-10T03:10:11.596Z,7.72
2019-03-10T03:11:11.552Z,7.74
2019-03-10T03:12:11.533Z,7.79
2019-03-10T03:13:11.509Z,7.89
2019-03-10T03:14:11.483Z,7.74
2019-03-10T03:15:11.528Z,7.77
2019-03-10T03:16:11.434Z,7.82
2019-03-10T03:17:11.411Z,7.85
2019-03-10T03:18:11.389Z,7.83
2019-03-10T03:19:11.388Z,7.79
2019-03-10T03:20:11.342Z,7.86
2019-03-10T03:21:11.406Z,7.79
2019-03-10T03:22:11.297Z,7.85
2019-03-10T03:23:11.274Z,7.77
2019-03-10T03:24:11.253Z,7.79
2019-03-10T03:25:11.225Z,7.79
2019-03-10T03:26:11.213Z,7.83
2019-03-10T03:27:11.181Z,7.75
2019-03-10T03:28:11.154Z,7.79
2019-03-10T03:29:11.129Z,7.72
2019-03-10T03:30:11.111Z,7.79
2019-03-10T03:31:11.084Z,7.80
2019-03-10T03:32:11.090Z,7.75
2019-03-10T03:33:11.045Z,7.80
2019-03-10T03:34:11.012Z,7.71
2019-03-10T03:35:10.993Z,7.74
2019-03-10T03:36:10.964Z,7.77
2019-03-10T03:37:10.957Z,7.69
2019-03-10T03:38:10.922Z,7.68
2019-03-10T03:39:10.895Z,7.63
2019-03-10T03:40:10.873Z,7.74
2019-03-10T03:41:10.850Z,7.74
2019-03-10T03:42:10.826Z,7.74
2019-03-10T03:43:10.803Z,7.77
2019-03-10T03:44:10.780Z,7.75
2019-03-10T03:45:10.761Z,7.71
2019-03-10T03:46:10.752Z,7.79
2019-03-10T03:47:10.711Z,7.69
2019-03-10T03:48:10.685Z,7.69
2019-03-10T03:49:10.663Z,7.67
2019-03-10T03:50:10.638Z,7.68
2019-03-10T03:51:10.615Z,7.67
2019-03-10T03:52:10.595Z,7.71
2019-03-10T03:53:10.576Z,7.74
2019-03-10T03:54:10.544Z,7.72
2019-03-10T03:55:10.522Z,7.71
2019-03-10T03:56:10.498Z,7.61
2019-03-10T03:57:10.476Z,7.71
2019-03-10T03:58:10.466Z,7.72
2019-03-10T03:59:10.429Z,7.60
2019-03-10T04:00:10.411Z,7.67
2019-03-10T04:01:10.393Z,7.67
2019-03-10T04:02:10.361Z,7.64
2019-03-10T04:03:10.339Z,7.64
2019-03-10T04:04:10.316Z,7.64
2019-03-10T04:05:10.286Z,7.67
2019-03-10T04:06:10.300Z,7.67
2019-03-10T04:07:10.370Z,7.55
2019-03-10T04:08:10.220Z,7.64
2019-03-10T04:09:10.196Z,7.52
2019-03-10T04:10:10.167Z,7.52
2019-03-10T04:11:10.147Z,7.49
2019-03-10T04:12:10.123Z,7.50
2019-03-10T04:13:10.097Z,7.46
2019-03-10T04:14:10.075Z,7.46
2019-03-10T04:15:10.050Z,7.45
2019-03-10T04:16:10.031Z,7.46
2019-03-10T04:17:10.005Z,7.48
2019-03-10T04:18:09.984Z,7.55
2019-03-10T04:19:09.958Z,7.39
2019-03-10T04:20:09.936Z,7.45
2019-03-10T04:21:09.909Z,7.46
2019-03-10T04:22:09.887Z,7.46
2019-03-10T04:23:09.861Z,7.39
2019-03-10T04:24:09.840Z,7.46
2019-03-10T04:25:09.814Z,7.53
2019-03-10T04:26:09.795Z,7.53
2019-03-10T04:27:09.771Z,7.45
2019-03-10T04:28:09.745Z,7.43
2019-03-10T04:29:09.721Z,7.45
2019-03-10T04:30:09.700Z,7.35
2019-03-10T04:31:09.709Z,7.42
2019-03-10T04:32:09.651Z,7.40
2019-03-10T04:33:09.629Z,7.42
2019-03-10T04:34:09.604Z,7.34
2019-03-10T04:35:09.583Z,7.39
2019-03-10T04:36:09.558Z,7.30
2019-03-10T04:37:09.534Z,7.32
2019-03-10T04:38:09.511Z,7.34
2019-03-10T04:39:09.488Z,7.34
2019-03-10T04:40:09.463Z,7.27
2019-03-10T04:41:09.443Z,7.28
2019-03-10T04:42:09.417Z,7.21
2019-03-10T04:43:09.394Z,7.16
2019-03-10T04:44:09.372Z,7.23
2019-03-10T04:45:09.348Z,7.20
2019-03-10T04:46:09.323Z,7.23
2019-03-10T04:47:09.299Z,7.20
2019-03-10T04:48:09.285Z,7.25
2019-03-10T04:49:09.259Z,7.28
2019-03-10T04:50:09.231Z,7.24
2019-03-10T04:51:09.207Z,7.31
2019-03-10T04:52:09.182Z,7.20
2019-03-10T04:53:09.164Z,7.34
2019-03-10T04:54:09.135Z,7.24
2019-03-10T04:55:09.115Z,7.17
2019-03-10T04:56:09.099Z,7.15
2019-03-10T04:57:09.066Z,7.17
2019-03-10T04:58:09.044Z,7.16
2019-03-10T04:59:09.019Z,7.13
2019-03-10T05:00:08.997Z,7.09
2019-03-10T05:01:08.974Z,7.06
2019-03-10T05:02:08.947Z,6.92
2019-03-10T05:03:08.925Z,6.89
2019-03-10T05:04:08.905Z,6.81
2019-03-10T05:05:08.879Z,6.85
2019-03-10T05:06:08.861Z,6.91
2019-03-10T05:07:08.831Z,6.89
2019-03-10T05:08:08.808Z,6.92
2019-03-10T05:09:08.790Z,6.92
2019-03-10T05:10:08.761Z,6.87
2019-03-10T05:11:08.738Z,6.84
2019-03-10T05:12:08.714Z,6.89
2019-03-10T05:13:08.694Z,6.92
2019-03-10T05:14:08.664Z,6.98
2019-03-10T05:15:08.642Z,6.98
2019-03-10T05:16:08.619Z,7.03
2019-03-10T05:17:08.596Z,6.92
2019-03-10T05:18:08.576Z,6.91
2019-03-10T05:19:08.552Z,6.95
2019-03-10T05:20:08.524Z,6.91
2019-03-10T05:21:08.502Z,7.05
2019-03-10T05:22:08.481Z,6.92
2019-03-10T05:23:08.456Z,6.98
2019-03-10T05:24:08.451Z,6.94
2019-03-10T05:25:08.408Z,7.07
2019-03-10T05:26:08.423Z,7.07
2019-03-10T05:27:08.362Z,6.94
2019-03-10T05:28:08.341Z,6.89
2019-03-10T05:29:08.313Z,6.91
2019-03-10T05:30:08.290Z,6.94
2019-03-10T05:31:08.267Z,6.95
2019-03-10T05:32:08.246Z,7.05
2019-03-10T05:33:08.220Z,7.09
2019-03-10T05:34:08.200Z,7.13
2019-03-10T05:35:08.173Z,7.10
2019-03-10T05:36:08.149Z,7.15
2019-03-10T05:37:08.127Z,7.05
2019-03-10T05:38:08.102Z,7.06
2019-03-10T05:39:08.081Z,7.10
2019-03-10T05:40:08.072Z,7.13
2019-03-10T05:41:08.035Z,7.15
2019-03-10T05:42:08.028Z,7.12
2019-03-10T05:43:07.989Z,7.07
2019-03-10T05:44:07.964Z,7.16
2019-03-10T05:45:07.947Z,7.12
2019-03-10T05:46:07.916Z,7.07
2019-03-10T05:47:07.893Z,7.03
2019-03-10T05:48:07.869Z,7.15
2019-03-10T05:49:07.847Z,7.12
2019-03-10T05:50:07.826Z,7.03
2019-03-10T05:51:07.800Z,7.05
2019-03-10T05:52:07.787Z,7.12
2019-03-10T05:53:07.755Z,7.07
2019-03-10T05:54:07.734Z,7.03
2019-03-10T05:55:07.709Z,7.05
2019-03-10T05:56:07.685Z,7.06
2019-03-10T05:57:07.668Z,7.07
2019-03-10T05:58:07.637Z,7.02
2019-03-10T05:59:07.614Z,7.07
2019-03-10T06:00:07.593Z,7.05
2019-03-10T06:01:07.567Z,6.99
2019-03-10T06:02:07.545Z,7.05
2019-03-10T06:03:07.530Z,7.09
2019-03-10T06:04:07.499Z,7.02
2019-03-10T06:05:07.477Z,7.06
2019-03-10T06:06:07.455Z,7.10
2019-03-10T06:07:07.427Z,7.07
2019-03-10T06:08:07.409Z,7.05
2019-03-10T06:09:07.383Z,7.03
2019-03-10T06:10:07.362Z,6.94
2019-03-10T06:11:07.336Z,6.94
2019-03-10T06:12:07.313Z,6.89
2019-03-10T06:13:07.293Z,7.05
2019-03-10T06:14:07.266Z,6.89
2019-03-10T06:15:07.244Z,6.97
2019-03-10T06:16:07.222Z,6.99
2019-03-10T06:17:07.198Z,6.97
2019-03-10T06:18:13.402Z,6.91
2019-03-10T06:19:07.154Z,6.97
2019-03-10T06:20:07.128Z,6.95
2019-03-10T06:21:07.106Z,6.94
2019-03-10T06:22:07.081Z,7.09
2019-03-10T06:23:07.060Z,7.06
2019-03-10T06:24:07.036Z,6.91
2019-03-10T06:25:07.018Z,6.95
2019-03-10T06:26:06.991Z,6.99
2019-03-10T06:27:06.966Z,6.88
2019-03-10T06:28:06.946Z,6.95
2019-03-10T06:29:06.919Z,6.95
2019-03-10T06:30:06.901Z,7.03
2019-03-10T06:31:06.875Z,6.94
2019-03-10T06:32:06.849Z,6.94
2019-03-10T06:33:06.831Z,6.84
2019-03-10T06:34:06.802Z,6.77
2019-03-10T06:35:06.781Z,6.97
2019-03-10T06:36:06.755Z,6.92
2019-03-10T06:37:06.735Z,6.92
2019-03-10T06:38:06.709Z,6.81
2019-03-10T06:39:06.696Z,6.89
2019-03-10T06:40:06.665Z,6.84
2019-03-10T06:41:06.648Z,6.95
2019-03-10T06:42:06.624Z,6.91
2019-03-10T06:43:06.593Z,6.92
2019-03-10T06:44:06.570Z,6.92
2019-03-10T06:45:06.549Z,6.91
2019-03-10T06:46:06.525Z,6.92
2019-03-10T06:47:06.502Z,6.84
2019-03-10T06:48:06.484Z,6.92
2019-03-10T06:49:06.455Z,6.85
2019-03-10T06:50:06.429Z,6.92
2019-03-10T06:51:06.410Z,6.95
2019-03-10T06:52:06.385Z,6.94
2019-03-10T06:53:06.364Z,6.92
2019-03-10T06:54:06.339Z,7.03
2019-03-10T06:55:06.314Z,6.95
2019-03-10T06:56:06.291Z,6.98
2019-03-10T06:57:06.273Z,6.98
2019-03-10T06:58:06.251Z,6.98
2019-03-10T06:59:06.228Z,6.97
2019-03-10T07:00:06.200Z,6.99
2019-03-10T07:01:06.181Z,6.92
2019-03-10T07:02:06.158Z,6.99
2019-03-10T07:03:06.131Z,6.92
2019-03-10T07:04:06.106Z,6.95
2019-03-10T07:05:06.084Z,6.94
2019-03-10T07:06:06.085Z,6.98
2019-03-10T07:07:06.046Z,6.95
2019-03-10T07:08:06.019Z,6.92
2019-03-10T07:09:06.001Z,6.95
2019-03-10T07:10:05.968Z,6.95
2019-03-10T07:11:05.950Z,6.95
2019-03-10T07:12:05.921Z,7.02
2019-03-10T07:13:05.899Z,6.97
2019-03-10T07:14:05.877Z,6.95
2019-03-10T07:15:05.863Z,6.91
2019-03-10T07:16:05.829Z,6.95
2019-03-10T07:17:05.809Z,6.95
2019-03-10T07:18:05.789Z,6.95
2019-03-10T07:19:05.760Z,6.87
2019-03-10T07:20:05.738Z,6.95
2019-03-10T07:21:05.728Z,6.94
2019-03-10T07:22:05.690Z,6.97
2019-03-10T07:23:05.669Z,6.94
2019-03-10T07:24:05.646Z,6.94
2019-03-10T07:25:05.625Z,6.97
2019-03-10T07:26:05.598Z,6.92
2019-03-10T07:27:05.579Z,6.99
2019-03-10T07:28:05.551Z,7.02
2019-03-10T07:29:05.533Z,6.92
2019-03-10T07:30:05.504Z,6.94
2019-03-10T07:31:05.489Z,6.99
2019-03-10T07:32:05.458Z,6.97
2019-03-10T07:33:05.434Z,6.92
2019-03-10T07:34:05.423Z,6.95
2019-03-10T07:35:05.412Z,6.98
2019-03-10T07:36:05.368Z,6.92
2019-03-10T07:37:05.342Z,6.92
2019-03-10T07:38:05.319Z,6.94
2019-03-10T07:39:05.297Z,6.99
2019-03-10T07:40:05.275Z,6.95
2019-03-10T07:41:05.251Z,6.92
2019-03-10T07:42:05.226Z,6.97
2019-03-10T07:43:05.205Z,6.89
2019-03-10T07:44:05.183Z,6.94
2019-03-10T07:45:05.158Z,6.98
2019-03-10T07:46:05.138Z,6.97
2019-03-10T07:47:05.110Z,7.03
2019-03-10T07:48:05.092Z,6.99
2019-03-10T07:49:05.068Z,6.89
2019-03-10T07:50:05.041Z,6.95
2019-03-10T07:51:05.017Z,6.92
2019-03-10T07:52:04.997Z,6.97
2019-03-10T07:53:04.976Z,6.94
2019-03-10T07:54:04.957Z,6.97
2019-03-10T07:55:04.926Z,6.99
2019-03-10T07:56:04.902Z,6.95
2019-03-10T07:57:04.886Z,6.94
2019-03-10T07:58:04.859Z,6.98
2019-03-10T07:59:04.837Z,6.92
2019-03-10T08:00:04.813Z,7.05
2019-03-10T08:01:04.798Z,7.03
2019-03-10T08:02:04.770Z,6.91
2019-03-10T08:03:04.744Z,6.97
2019-03-10T08:04:04.720Z,6.94
2019-03-10T08:05:04.702Z,6.92
2019-03-10T08:06:04.685Z,6.94
2019-03-10T08:07:04.647Z,6.94
2019-03-10T08:08:04.627Z,6.98
2019-03-10T08:09:04.605Z,6.97
2019-03-10T08:10:04.581Z,6.94
2019-03-10T08:11:04.568Z,6.94
2019-03-10T08:12:04.535Z,6.99
2019-03-10T08:13:04.507Z,6.91
2019-03-10T08:14:04.487Z,6.94
2019-03-10T08:15:04.462Z,6.95
2019-03-10T08:16:04.439Z,7.02
2019-03-10T08:17:04.430Z,6.89
2019-03-10T08:18:04.391Z,6.91
2019-03-10T08:19:04.370Z,6.81
2019-03-10T08:20:04.407Z,6.94
2019-03-10T08:21:04.324Z,6.92
2019-03-10T08:22:04.297Z,6.89
2019-03-10T08:23:04.279Z,6.91
2019-03-10T08:24:04.251Z,6.97
2019-03-10T08:25:04.247Z,6.92
2019-03-10T08:26:04.212Z,6.94
2019-03-10T08:27:04.189Z,6.95
2019-03-10T08:28:04.166Z,6.98
2019-03-10T08:29:04.137Z,6.95
2019-03-10T08:30:04.116Z,6.95
2019-03-10T08:31:04.089Z,6.99
2019-03-10T08:32:04.072Z,6.94
2019-03-10T08:33:04.054Z,6.98
2019-03-10T08:34:04.021Z,6.91
2019-03-10T08:35:03.993Z,6.98
2019-03-10T08:36:03.979Z,6.80
2019-03-10T08:37:03.948Z,6.84
2019-03-10T08:38:03.930Z,6.79
2019-03-10T08:39:03.905Z,6.76
2019-03-10T08:40:03.883Z,6.73
2019-03-10T08:41:03.855Z,6.73
2019-03-10T08:42:03.838Z,6.76
2019-03-10T08:43:03.853Z,6.76
2019-03-10T08:44:03.787Z,6.73
2019-03-10T08:45:03.759Z,6.73
2019-03-10T08:46:03.740Z,6.76
2019-03-10T08:47:03.713Z,6.79
2019-03-10T08:48:03.690Z,6.87
2019-03-10T08:49:03.670Z,6.79
2019-03-10T08:50:03.656Z,6.85
2019-03-10T08:51:03.619Z,6.79
2019-03-10T08:52:03.611Z,6.85
2019-03-10T08:53:03.573Z,6.77
2019-03-10T08:54:03.548Z,6.85
2019-03-10T08:55:03.530Z,6.77
2019-03-10T08:56:05.923Z,6.76
2019-03-10T08:57:03.480Z,6.84
2019-03-10T08:58:03.459Z,6.80
2019-03-10T08:59:03.446Z,6.76
2019-03-10T09:00:03.414Z,6.71
2019-03-10T09:01:03.388Z,6.73
2019-03-10T09:02:03.365Z,6.81
2019-03-10T09:03:03.346Z,6.80
2019-03-10T09:04:03.320Z,6.84
2019-03-10T09:05:03.295Z,6.88
2019-03-10T09:06:03.271Z,6.89
2019-03-10T09:07:03.245Z,6.81
2019-03-10T09:08:03.221Z,6.87
2019-03-10T09:09:03.212Z,6.84
2019-03-10T09:10:03.179Z,6.79
2019-03-10T09:11:03.151Z,6.79
2019-03-10T09:12:03.129Z,6.79
2019-03-10T09:13:03.118Z,6.87
2019-03-10T09:14:03.096Z,6.80
2019-03-10T09:15:03.066Z,6.77
2019-03-10T09:16:03.039Z,6.77
2019-03-10T09:17:03.027Z,6.80
2019-03-10T09:18:02.991Z,6.81
2019-03-10T09:19:02.962Z,6.85
2019-03-10T09:20:02.943Z,6.79
2019-03-10T09:21:02.917Z,6.80
2019-03-10T09:22:02.900Z,6.77
2019-03-10T09:23:02.869Z,6.79
2019-03-10T09:24:02.847Z,6.87
2019-03-10T09:25:02.828Z,6.81
2019-03-10T09:26:02.800Z,6.84
2019-03-10T09:27:02.788Z,6.89
2019-03-10T09:28:02.751Z,6.88
2019-03-10T09:29:02.739Z,6.95
2019-03-10T09:30:02.706Z,7.03
2019-03-10T09:31:02.687Z,6.92
2019-03-10T09:32:02.669Z,7.03
2019-03-10T09:33:02.636Z,6.98
2019-03-10T09:34:02.620Z,6.98
2019-03-10T09:35:02.587Z,6.97
2019-03-10T09:36:02.622Z,6.95
2019-03-10T09:37:02.551Z,6.98
2019-03-10T09:38:03.746Z,6.95
2019-03-10T09:39:02.494Z,6.92
2019-03-10T09:40:02.478Z,6.94
2019-03-10T09:41:02.454Z,7.05
2019-03-10T09:42:02.428Z,7.05
2019-03-10T09:43:02.406Z,7.10
2019-03-10T09:44:03.898Z,7.09
2019-03-10T09:45:02.359Z,7.07
2019-03-10T09:46:02.347Z,7.20
2019-03-10T09:47:02.312Z,7.16
2019-03-10T09:48:02.296Z,7.15
2019-03-10T09:49:02.271Z,7.15
2019-03-10T09:50:02.246Z,7.17
2019-03-10T09:51:02.220Z,7.02
2019-03-10T09:52:02.199Z,7.02
2019-03-10T09:53:02.175Z,7.07
2019-03-10T09:54:02.159Z,7.12
2019-03-10T09:55:02.128Z,7.06
2019-03-10T09:56:02.102Z,7.06
2019-03-10T09:57:02.088Z,7.02
2019-03-10T09:58:02.066Z,7.05
2019-03-10T09:59:02.029Z,7.05
2019-03-10T10:00:02.018Z,7.03
2019-03-10T10:01:01.997Z,6.99
2019-03-10T10:02:01.976Z,7.07
2019-03-10T10:03:01.943Z,6.99
2019-03-10T10:04:01.915Z,7.07
2019-03-10T10:05:01.893Z,7.05
2019-03-10T10:06:01.871Z,7.03
2019-03-10T10:07:01.852Z,7.09
2019-03-10T10:08:01.826Z,7.06
2019-03-10T10:09:01.815Z,7.02
2019-03-10T10:10:01.796Z,7.05
2019-03-10T10:11:01.771Z,7.17
2019-03-10T10:12:12.714Z,7.05
2019-03-10T10:13:01.709Z,7.20
2019-03-10T10:14:01.705Z,7.17
2019-03-10T10:15:01.667Z,7.20
2019-03-10T10:16:01.638Z,7.15
2019-03-10T10:17:01.621Z,7.17
2019-03-10T10:18:01.598Z,7.07
2019-03-10T10:19:01.568Z,7.21
2019-03-10T10:20:01.549Z,7.20
2019-03-10T10:21:01.524Z,7.15
2019-03-10T10:22:01.498Z,7.13
2019-03-10T10:23:01.473Z,7.15
2019-03-10T10:24:01.460Z,7.03
2019-03-10T10:25:01.439Z,7.06
2019-03-10T10:26:01.408Z,7.17
2019-03-10T10:27:01.388Z,7.13
2019-03-10T10:28:01.359Z,7.21
2019-03-10T10:29:01.336Z,7.27
2019-03-10T10:30:01.323Z,7.31
2019-03-10T10:31:01.289Z,7.32
2019-03-10T10:32:01.266Z,7.20
2019-03-10T10:33:01.252Z,7.23
2019-03-10T10:34:01.218Z,7.23
2019-03-10T10:35:01.204Z,7.24
2019-03-10T10:36:01.179Z,7.28
2019-03-10T10:37:01.156Z,7.24
2019-03-10T10:38:01.128Z,7.30
2019-03-10T10:39:01.120Z,7.21
2019-03-10T10:40:01.093Z,7.20
2019-03-10T10:41:01.078Z,7.24
2019-03-10T10:42:01.043Z,7.23
2019-03-10T10:43:01.012Z,7.20
2019-03-10T10:44:01.002Z,7.30
2019-03-10T10:45:00.972Z,7.30
2019-03-10T10:46:00.945Z,7.23
2019-03-10T10:47:00.922Z,7.24
2019-03-10T10:48:00.922Z,7.25
2019-03-10T10:49:00.890Z,7.23
2019-03-10T10:50:00.852Z,7.24
2019-03-10T10:51:00.829Z,7.20
2019-03-10T10:52:00.805Z,7.23
2019-03-10T10:53:00.785Z,7.27
2019-03-10T10:54:00.769Z,7.24
2019-03-10T10:55:00.735Z,7.28
2019-03-10T10:56:00.719Z,7.24
2019-03-10T10:57:00.693Z,7.27
2019-03-10T10:58:00.668Z,7.34
2019-03-10T10:59:00.641Z,7.27
2019-03-10T11:00:00.623Z,7.21
2019-03-10T11:01:00.597Z,7.25
2019-03-10T11:02:00.585Z,7.23
2019-03-10T11:03:00.553Z,7.34
2019-03-10T11:04:00.534Z,7.34
2019-03-10T11:05:00.512Z,7.31
2019-03-10T11:06:00.476Z,7.34
2019-03-10T11:07:00.464Z,7.30
2019-03-10T11:08:00.436Z,7.31
2019-03-10T11:09:02.767Z,7.31
2019-03-10T11:10:00.468Z,7.28
2019-03-10T11:11:00.375Z,7.30
2019-03-10T11:12:00.341Z,7.24
2019-03-10T11:13:00.319Z,7.25
2019-03-10T11:14:00.300Z,7.27
2019-03-10T11:15:00.351Z,7.24
2019-03-10T11:16:00.254Z,7.17
2019-03-10T11:17:00.237Z,7.35
2019-03-10T11:18:08.761Z,7.20
2019-03-10T11:19:00.186Z,7.28
2019-03-10T11:20:00.359Z,7.16
2019-03-10T11:21:00.134Z,7.28
2019-03-10T11:22:00.121Z,7.25
2019-03-10T11:23:00.093Z,7.23
2019-03-10T11:24:00.077Z,7.32
2019-03-10T11:25:00.055Z,7.32
2019-03-10T11:26:00.024Z,7.21
2019-03-10T11:27:00.007Z,7.30
2019-03-10T11:27:59.982Z,7.21
2019-03-10T11:29:03.615Z,7.20
2019-03-10T11:29:59.933Z,7.21
2019-03-10T11:30:59.918Z,7.32
2019-03-10T11:31:59.904Z,7.24
2019-03-10T11:32:59.858Z,7.23
2019-03-10T11:33:59.829Z,7.20
2019-03-10T11:34:59.817Z,7.16
2019-03-10T11:35:59.792Z,7.23
2019-03-10T11:36:59.767Z,7.23
2019-03-10T11:37:59.761Z,7.23
2019-03-10T11:38:59.721Z,7.28
2019-03-10T11:39:59.693Z,7.21
2019-03-10T11:40:59.676Z,7.17
2019-03-10T11:41:59.655Z,7.25
2019-03-10T11:42:59.636Z,7.24
2019-03-10T11:43:59.611Z,7.24
2019-03-10T11:44:59.581Z,7.30
2019-03-10T11:45:59.556Z,7.15
2019-03-10T11:46:59.539Z,7.25
2019-03-10T11:47:59.517Z,7.24
2019-03-10T11:48:59.486Z,7.21
2019-03-10T11:49:59.469Z,7.24
2019-03-10T11:50:59.440Z,7.28
2019-03-10T11:51:59.422Z,7.24
2019-03-10T11:52:59.400Z,7.15
2019-03-10T11:53:59.376Z,7.23
2019-03-10T11:54:59.349Z,7.21
2019-03-10T11:55:59.336Z,7.23
2019-03-10T11:56:59.306Z,7.24
2019-03-10T11:57:59.280Z,7.24
2019-03-10T11:58:59.258Z,7.25
2019-03-10T11:59:59.237Z,7.37
2019-03-10T12:00:59.226Z,7.35
2019-03-10T12:01:59.197Z,7.43
2019-03-10T12:02:59.171Z,7.49
2019-03-10T12:03:59.142Z,7.50
2019-03-10T12:04:59.123Z,7.53
2019-03-10T12:05:59.099Z,7.48
2019-03-10T12:06:59.070Z,7.49
2019-03-10T12:07:59.048Z,7.49
2019-03-10T12:08:59.046Z,7.46
2019-03-10T12:09:59.001Z,7.39
2019-03-10T12:10:58.980Z,7.57
2019-03-10T12:11:58.955Z,7.52
2019-03-10T12:12:58.943Z,7.49
2019-03-10T12:13:58.912Z,7.63
2019-03-10T12:14:58.902Z,7.67
2019-03-10T12:15:58.872Z,7.68
2019-03-10T12:16:58.842Z,7.67
2019-03-10T12:17:58.823Z,7.67
2019-03-10T12:18:58.801Z,7.72
2019-03-10T12:19:58.792Z,7.68
2019-03-10T12:20:58.760Z,7.74
2019-03-10T12:21:58.733Z,7.87
2019-03-10T12:22:58.713Z,7.74
2019-03-10T12:23:58.687Z,7.80
2019-03-10T12:24:58.661Z,7.74
2019-03-10T12:25:58.646Z,7.82
2019-03-10T12:26:58.611Z,7.83
2019-03-10T12:27:58.606Z,7.80
2019-03-10T12:28:58.569Z,7.82
2019-03-10T12:29:58.547Z,7.75
2019-03-10T12:30:58.522Z,7.83
2019-03-10T12:31:58.498Z,7.75
2019-03-10T12:32:58.486Z,7.80
2019-03-10T12:33:58.451Z,7.79
2019-03-10T12:34:58.426Z,7.82
2019-03-10T12:35:58.416Z,7.87
2019-03-10T12:36:58.385Z,7.83
2019-03-10T12:37:58.368Z,7.87
2019-03-10T12:38:58.339Z,7.83
2019-03-10T12:39:58.323Z,7.79
2019-03-10T12:40:58.316Z,7.77
2019-03-10T12:41:58.969Z,7.75
2019-03-10T12:42:58.259Z,7.80
2019-03-10T12:43:58.231Z,7.79
2019-03-10T12:44:58.207Z,7.82
2019-03-10T12:45:58.176Z,7.85
2019-03-10T12:46:58.156Z,7.90
2019-03-10T12:47:58.143Z,7.89
2019-03-10T12:48:58.109Z,7.83
2019-03-10T12:49:58.087Z,7.77
2019-03-10T12:50:58.070Z,7.82
2019-03-10T12:51:58.047Z,7.89
2019-03-10T12:52:58.026Z,7.89
2019-03-10T12:53:57.994Z,7.90
2019-03-10T12:54:57.973Z,7.95
2019-03-10T12:55:57.951Z,8.02
2019-03-10T12:56:57.925Z,8.04
2019-03-10T12:57:57.904Z,7.98
2019-03-10T12:58:57.879Z,8.10
2019-03-10T12:59:57.863Z,8.16
2019-03-10T13:01:05.514Z,8.11
2019-03-10T13:01:57.822Z,8.16
2019-03-10T13:02:57.793Z,8.10
2019-03-10T13:03:59.210Z,8.10
2019-03-10T13:04:57.745Z,8.22
2019-03-10T13:05:57.724Z,8.20
2019-03-10T13:06:57.709Z,8.22
2019-03-10T13:07:57.671Z,8.25
2019-03-10T13:08:57.657Z,8.34
2019-03-10T13:09:57.632Z,8.37
2019-03-10T13:10:57.610Z,8.44
2019-03-10T13:11:57.586Z,8.50
2019-03-10T13:12:57.571Z,8.62
2019-03-10T13:13:57.547Z,8.55
2019-03-10T13:14:59.846Z,8.65
2019-03-10T13:15:57.495Z,8.68
2019-03-10T13:16:57.482Z,8.81
2019-03-10T13:17:57.448Z,8.84